createdAt,value
2022-09-15T00:01:36.769Z,15.57
2022-09-15T00:04:04.081Z,13.50
2022-09-15T00:06:30.839Z,13.47
2022-09-15T00:08:59.323Z,10.07
2022-09-15T00:11:31.731Z,13.23
2022-09-15T00:14:01.319Z,13.20
2022-09-15T00:16:30.952Z,14.63
2022-09-15T00:18:59.345Z,13.77
2022-09-15T00:21:29.116Z,12.17
2022-09-15T00:23:55.891Z,12.30
2022-09-15T00:26:26.370Z,14.47
2022-09-15T00:28:53.164Z,15.30
2022-09-15T00:31:22.914Z,12.37
2022-09-15T00:33:53.181Z,12.80
2022-09-15T00:36:21.359Z,13.73
2022-09-15T00:38:48.531Z,12.90
2022-09-15T00:41:17.884Z,14.93
2022-09-15T00:43:49.585Z,11.40
2022-09-15T00:46:19.169Z,11.97
2022-09-15T00:48:54.364Z,12.70
2022-09-15T00:51:27.184Z,12.10
2022-09-15T00:53:54.239Z,11.63
2022-09-15T00:56:22.469Z,12.03
2022-09-15T00:59:01.368Z,13.90
2022-09-15T01:01:30.705Z,10.57
2022-09-15T01:03:58.383Z,10.87
2022-09-15T01:06:36.482Z,12.93
2022-09-15T01:09:21.003Z,10.87
2022-09-15T01:11:48.136Z,16.87
2022-09-15T01:14:15.222Z,15.73
2022-09-15T01:16:50.737Z,12.50
2022-09-15T01:19:53.076Z,10.40
2022-09-15T01:22:58.143Z,9.83
2022-09-15T01:25:50.985Z,9.37
2022-09-15T01:28:40.611Z,11.73
2022-09-15T01:31:16.164Z,11.90
2022-09-15T01:34:00.249Z,10.63
2022-09-15T01:36:57.004Z,13.57
2022-09-15T01:39:32.238Z,11.37
2022-09-15T01:42:03.204Z,11.83
2022-09-15T01:44:34.630Z,11.30
2022-09-15T01:47:09.637Z,9.07
2022-09-15T01:50:01.145Z,14.50
2022-09-15T01:52:29.235Z,17.00
2022-09-15T01:54:59.918Z,11.87
2022-09-15T01:57:27.481Z,13.00
2022-09-15T01:59:56.032Z,14.30
2022-09-15T02:02:28.697Z,11.13
2022-09-15T02:05:16.558Z,12.03
2022-09-15T02:08:09.217Z,10.67
2022-09-15T02:10:51.733Z,9.47
2022-09-15T02:13:30.968Z,9.20
2022-09-15T02:16:00.208Z,10.27
2022-09-15T02:18:38.034Z,10.47
2022-09-15T02:21:11.002Z,11.83
2022-09-15T02:23:44.373Z,11.20
2022-09-15T02:26:19.621Z,11.37
2022-09-15T02:28:49.025Z,11.40
2022-09-15T02:31:18.912Z,10.20
2022-09-15T02:33:59.224Z,11.53
2022-09-15T02:36:29.020Z,18.13
2022-09-15T02:39:01.590Z,11.73
2022-09-15T02:41:28.449Z,10.63
2022-09-15T02:43:55.192Z,11.70
2022-09-15T02:46:23.067Z,12.30
2022-09-15T02:48:50.304Z,11.90
2022-09-15T02:51:18.233Z,14.23
2022-09-15T02:53:46.325Z,11.57
2022-09-15T02:56:13.731Z,13.37
2022-09-15T02:58:40.489Z,11.57
2022-09-15T03:01:08.444Z,12.60
2022-09-15T03:03:37.858Z,11.93
2022-09-15T03:06:21.032Z,8.67
2022-09-15T03:08:55.156Z,9.00
2022-09-15T03:11:24.168Z,11.37
2022-09-15T03:13:59.350Z,10.00
2022-09-15T03:16:27.728Z,9.70
2022-09-15T03:18:55.902Z,8.83
2022-09-15T03:21:23.256Z,9.03
2022-09-15T03:23:50.019Z,12.20
2022-09-15T03:26:17.061Z,11.17
2022-09-15T03:28:43.887Z,9.37
2022-09-15T03:31:10.744Z,10.87
2022-09-15T03:33:38.230Z,10.80
2022-09-15T03:36:05.473Z,13.20
2022-09-15T03:38:32.584Z,14.07
2022-09-15T03:41:08.011Z,13.13
2022-09-15T03:43:36.055Z,12.20
2022-09-15T03:46:05.078Z,9.63
2022-09-15T03:48:34.791Z,12.13
2022-09-15T03:51:02.511Z,10.67
2022-09-15T03:53:32.805Z,9.53
2022-09-15T03:56:22.197Z,11.70
2022-09-15T03:58:49.111Z,11.93
2022-09-15T04:01:16.036Z,12.93
2022-09-15T04:03:47.621Z,16.53
2022-09-15T04:06:18.034Z,12.40
2022-09-15T04:08:44.943Z,9.67
2022-09-15T04:11:12.704Z,12.57
2022-09-15T04:13:41.518Z,11.93
2022-09-15T04:16:14.721Z,9.20
2022-09-15T04:18:41.686Z,13.77
2022-09-15T04:21:13.995Z,10.57
2022-09-15T04:23:41.864Z,10.80
2022-09-15T04:26:16.611Z,15.10
2022-09-15T04:28:43.472Z,10.23
2022-09-15T04:31:12.870Z,15.03
2022-09-15T04:33:41.235Z,11.60
2022-09-15T04:36:12.992Z,12.50
2022-09-15T04:38:39.767Z,8.87
2022-09-15T04:41:06.677Z,14.03
2022-09-15T04:43:33.817Z,10.33
2022-09-15T04:46:00.858Z,10.27
2022-09-15T04:48:27.931Z,10.37
2022-09-15T04:50:54.886Z,11.87
2022-09-15T04:53:21.766Z,10.90
2022-09-15T04:55:48.536Z,9.87
2022-09-15T04:58:15.410Z,11.10
2022-09-15T05:00:43.616Z,13.13
2022-09-15T05:03:11.418Z,14.90
2022-09-15T05:05:38.631Z,10.60
2022-09-15T05:08:05.845Z,13.40
2022-09-15T05:10:33.199Z,11.07
2022-09-15T05:13:00.347Z,9.40
2022-09-15T05:15:27.308Z,11.83
2022-09-15T05:17:54.130Z,10.43
2022-09-15T05:20:21.003Z,8.63
2022-09-15T05:22:47.894Z,11.40
2022-09-15T05:25:14.766Z,10.83
2022-09-15T05:27:41.583Z,13.47
2022-09-15T05:30:35.773Z,14.03
2022-09-15T05:32:56.365Z,10.73
2022-09-15T05:35:23.629Z,12.93
2022-09-15T05:37:50.452Z,11.77
2022-09-15T05:40:17.433Z,10.80
2022-09-15T05:42:44.237Z,12.00
2022-09-15T05:45:11.240Z,14.20
2022-09-15T05:47:38.059Z,14.77
2022-09-15T05:50:05.236Z,13.23
2022-09-15T05:52:32.194Z,14.53
2022-09-15T05:54:59.459Z,10.80
2022-09-15T05:57:27.368Z,12.37
2022-09-15T05:59:54.183Z,18.13
2022-09-15T06:02:21.070Z,13.40
2022-09-15T06:04:47.866Z,12.47
2022-09-15T06:07:16.213Z,15.13
2022-09-15T06:09:42.992Z,14.23
2022-09-15T06:12:09.815Z,15.93
2022-09-15T06:14:36.512Z,13.00
2022-09-15T06:17:03.345Z,12.97
2022-09-15T06:19:30.153Z,12.90
2022-09-15T06:21:56.955Z,12.07
2022-09-15T06:24:24.355Z,12.13
2022-09-15T06:26:51.246Z,11.80
2022-09-15T06:29:18.203Z,16.83
2022-09-15T06:31:45.146Z,17.17
2022-09-15T06:34:12.143Z,12.83
2022-09-15T06:36:39.146Z,15.57
2022-09-15T06:39:05.964Z,14.63
2022-09-15T06:41:58.301Z,14.50
2022-09-15T06:44:20.392Z,16.73
2022-09-15T06:46:47.781Z,10.70
2022-09-15T06:49:14.615Z,8.77
2022-09-15T06:51:42.105Z,11.43
2022-09-15T06:54:08.991Z,11.17
2022-09-15T06:56:38.013Z,16.40
2022-09-15T06:59:05.305Z,10.70
2022-09-15T07:01:33.067Z,9.40
2022-09-15T07:04:01.361Z,13.93
2022-09-15T07:06:30.796Z,11.07
2022-09-15T07:08:58.581Z,12.00
2022-09-15T07:11:26.299Z,10.73
2022-09-15T07:13:53.478Z,12.27
2022-09-15T07:16:21.468Z,8.30
2022-09-15T07:18:49.111Z,10.93
2022-09-15T07:21:19.854Z,9.30
2022-09-15T07:23:47.847Z,12.17
2022-09-15T07:26:20.049Z,10.03
2022-09-15T07:28:52.476Z,10.33
2022-09-15T07:31:22.259Z,9.37
2022-09-15T07:33:49.134Z,9.77
2022-09-15T07:36:16.922Z,8.27
2022-09-15T07:38:45.905Z,12.03
2022-09-15T07:41:15.173Z,11.60
2022-09-15T07:43:46.354Z,11.17
2022-09-15T07:46:13.376Z,10.50
2022-09-15T07:48:40.247Z,12.27
2022-09-15T07:51:07.208Z,16.57
2022-09-15T07:53:34.280Z,15.80
2022-09-15T07:56:01.276Z,12.20
2022-09-15T07:58:28.020Z,11.90
2022-09-15T08:00:54.931Z,10.30
2022-09-15T08:03:21.903Z,19.33
2022-09-15T08:05:48.715Z,10.17
2022-09-15T08:08:15.427Z,7.63
2022-09-15T08:10:42.654Z,10.67
2022-09-15T08:13:09.439Z,8.63
2022-09-15T08:15:37.606Z,14.83
2022-09-15T08:18:05.280Z,6.57
2022-09-15T08:20:32.898Z,9.80
2022-09-15T08:22:59.687Z,8.63
2022-09-15T08:25:26.553Z,5.93
2022-09-15T08:27:55.059Z,8.00
2022-09-15T08:30:22.693Z,6.30
2022-09-15T08:32:50.200Z,7.50
2022-09-15T08:35:17.734Z,8.10
2022-09-15T08:37:44.619Z,7.77
2022-09-15T08:40:26.801Z,6.27
2022-09-15T08:42:57.712Z,5.87
2022-09-15T08:45:32.927Z,5.23
2022-09-15T08:48:03.468Z,10.77
2022-09-15T08:50:39.884Z,15.50
2022-09-15T08:53:24.259Z,6.80
2022-09-15T08:55:56.856Z,5.47
2022-09-15T08:58:30.119Z,5.03
2022-09-15T09:01:26.111Z,9.57
2022-09-15T09:04:04.887Z,3.63
2022-09-15T09:06:53.060Z,7.23
2022-09-15T09:09:37.631Z,5.93
2022-09-15T09:12:41.435Z,6.00
2022-09-15T09:15:38.630Z,5.53
2022-09-15T09:18:11.980Z,3.53
2022-09-15T09:20:57.276Z,7.53
2022-09-15T09:23:28.488Z,6.00
2022-09-15T09:25:57.183Z,4.73
2022-09-15T09:28:34.058Z,5.60
2022-09-15T09:31:11.428Z,3.00
2022-09-15T09:33:47.747Z,2.53
2022-09-15T09:36:15.146Z,3.23
2022-09-15T09:38:46.250Z,6.40
2022-09-15T09:41:19.635Z,5.50
2022-09-15T09:43:48.453Z,4.40
2022-09-15T09:46:18.159Z,5.43
2022-09-15T09:48:54.876Z,4.73
2022-09-15T09:51:37.292Z,10.03
2022-09-15T09:54:16.406Z,6.03
2022-09-15T09:56:44.636Z,9.60
2022-09-15T09:59:33.856Z,4.93
2022-09-15T10:02:21.927Z,7.17
2022-09-15T10:05:00.267Z,8.53
2022-09-15T10:07:27.295Z,2.13
2022-09-15T10:09:59.652Z,5.03
2022-09-15T10:12:40.610Z,8.10
2022-09-15T10:15:20.568Z,4.93
2022-09-15T10:17:49.616Z,3.10
2022-09-15T10:20:35.683Z,2.57
2022-09-15T10:23:18.884Z,1.90
2022-09-15T10:26:01.339Z,2.80
2022-09-15T10:28:28.598Z,1.00
2022-09-15T10:31:10.914Z,2.40
2022-09-15T10:33:46.185Z,1.90
2022-09-15T10:36:18.964Z,4.83
2022-09-15T10:38:48.583Z,1.87
2022-09-15T10:41:22.030Z,4.00
2022-09-15T10:44:26.352Z,4.17
2022-09-15T10:47:44.548Z,2.97
2022-09-15T10:50:33.725Z,2.97
2022-09-15T10:53:18.916Z,4.10
2022-09-15T10:56:25.592Z,4.03
2022-09-15T10:59:26.904Z,4.20
2022-09-15T11:02:11.725Z,3.23
2022-09-15T11:04:53.321Z,1.97
2022-09-15T11:07:50.729Z,3.23
2022-09-15T11:10:35.374Z,3.80
2022-09-15T11:13:30.489Z,2.70
2022-09-15T11:16:46.234Z,3.87
2022-09-15T11:19:34.715Z,2.30
2022-09-15T11:22:11.605Z,2.93
2022-09-15T11:24:41.511Z,5.47
2022-09-15T11:27:25.975Z,3.13
2022-09-15T11:30:07.609Z,2.33
2022-09-15T11:32:54.295Z,3.13
2022-09-15T11:35:46.323Z,2.73
2022-09-15T11:38:31.610Z,3.00
2022-09-15T11:41:16.107Z,2.17
2022-09-15T11:44:04.123Z,3.57
2022-09-15T11:47:23.121Z,2.87
2022-09-15T11:50:12.917Z,5.50
2022-09-15T11:52:46.829Z,2.90
2022-09-15T11:55:37.328Z,1.40
2022-09-15T11:58:29.460Z,2.20
2022-09-15T12:01:12.607Z,3.77
2022-09-15T12:03:48.382Z,2.47
2022-09-15T12:06:45.585Z,1.13
2022-09-15T12:09:18.251Z,2.63
2022-09-15T12:12:02.115Z,3.33
2022-09-15T12:14:38.574Z,5.90
2022-09-15T12:17:16.968Z,2.93
2022-09-15T12:20:05.676Z,5.73
2022-09-15T12:22:46.308Z,3.17
2022-09-15T12:25:44.215Z,2.00
2022-09-15T12:28:51.072Z,1.60
2022-09-15T12:31:27.111Z,3.03
2022-09-15T12:33:55.037Z,4.50
2022-09-15T12:36:45.747Z,2.43
2022-09-15T12:39:26.265Z,4.67
2022-09-15T12:42:00.518Z,3.33
2022-09-15T12:44:35.879Z,4.30
2022-09-15T12:47:07.194Z,1.93
2022-09-15T12:49:43.674Z,1.50
2022-09-15T12:52:12.083Z,3.10
2022-09-15T12:54:42.472Z,1.70
2022-09-15T12:57:28.242Z,2.03
2022-09-15T13:00:39.748Z,1.90
2022-09-15T13:03:28.420Z,1.47
2022-09-15T13:06:16.259Z,3.20
2022-09-15T13:08:52.134Z,3.20
2022-09-15T13:14:26.688Z,4.30
2022-09-15T13:17:13.260Z,1.37
2022-09-15T13:19:46.491Z,1.40
2022-09-15T13:22:30.204Z,2.67
2022-09-15T13:25:15.691Z,2.63
2022-09-15T13:27:52.331Z,2.67
2022-09-15T13:30:27.700Z,3.43
2022-09-15T13:33:03.751Z,3.30
2022-09-15T13:35:52.497Z,3.43
2022-09-15T13:38:52.400Z,4.87
2022-09-15T13:41:46.961Z,1.30
2022-09-15T13:44:31.205Z,1.90
2022-09-15T13:47:04.104Z,0.80
2022-09-15T13:49:38.005Z,5.57
2022-09-15T13:52:20.742Z,2.03
2022-09-15T13:55:19.424Z,0.77
2022-09-15T14:01:05.798Z,2.30
2022-09-15T14:03:37.353Z,5.17
2022-09-15T14:06:15.068Z,2.47
2022-09-15T14:08:45.975Z,2.40
2022-09-15T14:11:15.781Z,1.57
2022-09-15T14:13:46.813Z,3.13
2022-09-15T14:16:23.809Z,2.17
2022-09-15T14:18:51.771Z,2.47
2022-09-15T14:21:21.552Z,3.17
2022-09-15T14:23:51.370Z,3.80
2022-09-15T14:26:23.182Z,3.93
2022-09-15T14:29:02.180Z,4.27
2022-09-15T14:31:34.156Z,3.93
2022-09-15T14:34:07.375Z,5.57
2022-09-15T14:36:34.799Z,1.57
2022-09-15T14:39:19.825Z,4.20
2022-09-15T14:41:47.658Z,1.10
2022-09-15T14:47:28.947Z,3.17
2022-09-15T14:50:15.945Z,3.27
2022-09-15T14:52:53.308Z,3.70
2022-09-15T14:55:23.351Z,5.37
2022-09-15T14:58:05.288Z,3.30
2022-09-15T15:00:46.553Z,2.77
2022-09-15T15:03:35.571Z,5.40
2022-09-15T15:06:34.852Z,3.63
2022-09-15T15:09:10.503Z,1.57
2022-09-15T15:11:40.157Z,3.10
2022-09-15T15:14:09.778Z,2.40
2022-09-15T15:16:36.790Z,5.70
2022-09-15T15:19:04.277Z,2.73
2022-09-15T15:21:38.989Z,1.73
2022-09-15T15:24:22.346Z,6.43
2022-09-15T15:26:50.634Z,4.50
2022-09-15T15:29:43.239Z,3.27
2022-09-15T15:32:15.749Z,2.70
2022-09-15T15:34:59.988Z,2.20
2022-09-15T15:37:33.237Z,3.70
2022-09-15T15:40:07.978Z,2.23
2022-09-15T15:42:34.977Z,2.47
2022-09-15T15:45:20.421Z,2.17
2022-09-15T15:47:47.216Z,3.43
2022-09-15T15:50:20.968Z,2.03
2022-09-15T15:52:49.424Z,2.53
2022-09-15T15:55:17.300Z,1.97
2022-09-15T15:57:46.566Z,3.57
2022-09-15T16:00:38.853Z,2.73
2022-09-15T16:03:06.021Z,3.07
2022-09-15T16:05:34.023Z,6.40
2022-09-15T16:08:09.536Z,2.57
2022-09-15T16:10:44.604Z,1.27
2022-09-15T16:13:16.592Z,2.67
2022-09-15T16:15:44.849Z,2.97
2022-09-15T16:18:13.035Z,3.13
2022-09-15T16:20:40.608Z,3.23
2022-09-15T16:23:11.781Z,4.13
2022-09-15T16:26:00.194Z,1.83
2022-09-15T16:28:28.681Z,2.13
2022-09-15T16:30:56.716Z,2.17
2022-09-15T16:33:24.929Z,1.77
2022-09-15T16:36:03.677Z,1.70
2022-09-15T16:38:30.521Z,0.83
2022-09-15T16:40:57.506Z,3.83
2022-09-15T16:43:24.930Z,2.70
2022-09-15T16:45:52.623Z,5.33
2022-09-15T16:48:19.543Z,3.57
2022-09-15T16:51:16.892Z,6.10
2022-09-15T16:53:34.519Z,4.50
2022-09-15T16:56:01.540Z,4.37
2022-09-15T16:58:28.520Z,2.43
2022-09-15T17:00:56.546Z,1.93
2022-09-15T17:03:25.384Z,2.17
2022-09-15T17:05:54.247Z,3.87
2022-09-15T17:08:24.732Z,1.10
2022-09-15T17:10:53.028Z,2.33
2022-09-15T17:13:23.968Z,2.67
2022-09-15T17:15:56.171Z,2.00
2022-09-15T17:18:23.116Z,1.63
2022-09-15T17:20:50.835Z,4.10
2022-09-15T17:23:39.686Z,4.43
2022-09-15T17:26:14.853Z,4.63
2022-09-15T17:28:42.343Z,4.40
2022-09-15T17:31:16.160Z,4.43
2022-09-15T17:33:43.364Z,3.43
2022-09-15T17:36:10.826Z,5.57
2022-09-15T17:38:37.859Z,2.43
2022-09-15T17:41:04.884Z,6.77
2022-09-15T17:43:32.038Z,4.13
2022-09-15T17:45:59.237Z,2.80
2022-09-15T17:48:26.228Z,2.20
2022-09-15T17:50:53.171Z,3.30
2022-09-15T17:53:28.317Z,3.07
2022-09-15T17:55:55.764Z,4.63
2022-09-15T17:58:26.368Z,5.37
2022-09-15T18:00:53.928Z,4.40
2022-09-15T18:03:28.292Z,4.93
2022-09-15T18:05:59.874Z,2.27
2022-09-15T18:08:27.371Z,4.57
2022-09-15T18:10:54.609Z,4.77
2022-09-15T18:13:23.953Z,3.30
2022-09-15T18:15:51.069Z,5.53
2022-09-15T18:18:26.198Z,2.83
2022-09-15T18:20:55.223Z,3.20
2022-09-15T18:23:24.275Z,3.67
2022-09-15T18:25:51.136Z,4.37
2022-09-15T18:28:19.086Z,3.17
2022-09-15T18:30:48.725Z,5.53
2022-09-15T18:33:22.761Z,6.03
2022-09-15T18:35:52.878Z,5.77
2022-09-15T18:38:20.358Z,5.37
2022-09-15T18:40:50.146Z,7.67
2022-09-15T18:43:17.474Z,5.27
2022-09-15T18:45:44.578Z,3.13
2022-09-15T18:48:13.109Z,3.80
2022-09-15T18:50:41.290Z,5.37
2022-09-15T18:53:08.211Z,3.23
2022-09-15T18:55:35.095Z,3.40
2022-09-15T18:58:02.386Z,5.83
2022-09-15T19:00:29.353Z,5.23
2022-09-15T19:02:58.296Z,6.80
2022-09-15T19:05:25.463Z,7.47
2022-09-15T19:07:52.531Z,5.37
2022-09-15T19:10:19.846Z,7.43
2022-09-15T19:12:46.571Z,2.80
2022-09-15T19:15:13.923Z,4.10
2022-09-15T19:17:41.926Z,1.13
2022-09-15T19:20:10.750Z,5.47
2022-09-15T19:22:38.059Z,4.30
2022-09-15T19:25:06.947Z,5.63
2022-09-15T19:27:34.518Z,4.10
2022-09-15T19:30:01.805Z,2.77
2022-09-15T19:32:28.719Z,4.93
2022-09-15T19:34:55.524Z,3.63
2022-09-15T19:37:22.683Z,5.27
2022-09-15T19:39:50.194Z,3.10
2022-09-15T19:42:17.482Z,2.93
2022-09-15T19:44:44.857Z,3.57
2022-09-15T19:47:12.019Z,4.70
2022-09-15T19:49:38.818Z,2.63
2022-09-15T19:52:06.711Z,4.07
2022-09-15T19:54:37.038Z,1.73
2022-09-15T19:57:04.489Z,3.87
2022-09-15T19:59:31.988Z,2.47
2022-09-15T20:02:00.718Z,5.90
2022-09-15T20:04:28.974Z,3.77
2022-09-15T20:06:55.796Z,4.03
2022-09-15T20:09:22.770Z,2.30
2022-09-15T20:11:49.519Z,4.60
2022-09-15T20:14:16.495Z,5.07
2022-09-15T20:16:43.303Z,2.20
2022-09-15T20:19:10.584Z,5.97
2022-09-15T20:21:54.068Z,6.00
2022-09-15T20:24:21.701Z,1.90
2022-09-15T20:26:48.790Z,2.67
2022-09-15T20:29:15.667Z,2.57
2022-09-15T20:31:43.099Z,1.90
2022-09-15T20:34:09.822Z,3.50
2022-09-15T20:36:39.006Z,3.40
2022-09-15T20:39:09.373Z,5.43
2022-09-15T20:41:36.128Z,4.57
2022-09-15T20:44:03.688Z,4.27
2022-09-15T20:46:31.348Z,3.80
2022-09-15T20:48:58.259Z,2.47
2022-09-15T20:51:27.975Z,3.20
2022-09-15T20:53:56.724Z,2.50
2022-09-15T20:56:28.828Z,3.60
2022-09-15T20:59:00.816Z,4.80
2022-09-15T21:01:31.976Z,2.40
2022-09-15T21:03:59.011Z,1.87
2022-09-15T21:06:27.478Z,4.13
2022-09-15T21:08:56.150Z,5.40
2022-09-15T21:11:26.637Z,2.10
2022-09-15T21:13:54.654Z,1.93
2022-09-15T21:16:24.590Z,6.90
2022-09-15T21:18:52.136Z,4.93
2022-09-15T21:21:24.417Z,5.03
2022-09-15T21:23:56.748Z,2.70
2022-09-15T21:26:25.989Z,1.53
2022-09-15T21:28:54.621Z,3.47
2022-09-15T21:31:24.665Z,6.13
2022-09-15T21:33:53.012Z,3.63
2022-09-15T21:36:22.316Z,2.93
2022-09-15T21:38:51.002Z,4.33
2022-09-15T21:41:21.562Z,3.73
2022-09-15T21:43:49.581Z,4.13
2022-09-15T21:46:18.561Z,2.60
2022-09-15T21:48:47.296Z,3.97
2022-09-15T21:51:24.200Z,2.80
2022-09-15T21:53:53.265Z,5.23
2022-09-15T21:56:20.621Z,3.03
2022-09-15T21:58:47.484Z,2.60
2022-09-15T22:01:20.904Z,5.17
2022-09-15T22:03:49.402Z,3.77
2022-09-15T22:06:16.878Z,2.33
2022-09-15T22:08:44.779Z,5.03
2022-09-15T22:11:13.637Z,4.90
2022-09-15T22:13:43.055Z,4.70
2022-09-15T22:16:16.969Z,3.60
2022-09-15T22:18:44.624Z,7.17
2022-09-15T22:21:15.794Z,2.37
2022-09-15T22:23:44.460Z,3.40
2022-09-15T22:26:13.993Z,3.23
2022-09-15T22:28:41.406Z,2.20
2022-09-15T22:31:10.392Z,4.47
2022-09-15T22:33:38.505Z,2.97
2022-09-15T22:36:06.315Z,7.03
2022-09-15T22:38:33.194Z,4.87
2022-09-15T22:41:09.165Z,2.93
2022-09-15T22:43:36.929Z,2.77
2022-09-15T22:46:04.359Z,2.67
2022-09-15T22:48:31.366Z,4.10
2022-09-15T22:50:58.877Z,6.87
2022-09-15T22:53:25.991Z,5.00
2022-09-15T22:56:04.953Z,2.87
2022-09-15T22:58:33.221Z,3.87
2022-09-15T23:01:09.608Z,5.50
2022-09-15T23:03:37.590Z,4.60
2022-09-15T23:06:05.396Z,5.70
2022-09-15T23:08:33.265Z,2.27
2022-09-15T23:11:08.045Z,5.87
2022-09-15T23:13:35.121Z,2.33
2022-09-15T23:16:02.678Z,6.93
2022-09-15T23:18:30.421Z,6.30
2022-09-15T23:21:02.055Z,3.27
2022-09-15T23:23:29.551Z,3.50
2022-09-15T23:25:56.341Z,2.20
2022-09-15T23:28:24.060Z,3.80
2022-09-15T23:30:55.360Z,2.63
2022-09-15T23:33:23.597Z,4.20
2022-09-15T23:35:51.404Z,3.20
2022-09-15T23:38:20.071Z,3.60
2022-09-15T23:40:48.335Z,5.03
2022-09-15T23:43:16.272Z,6.37
2022-09-15T23:45:43.984Z,2.27
2022-09-15T23:48:11.032Z,5.03
2022-09-15T23:50:39.195Z,4.03
2022-09-15T23:53:06.978Z,4.80
2022-09-15T23:55:34.051Z,3.97
2022-09-15T23:58:01.088Z,5.57
